createdAt,value
2018-10-06T00:02:23.073Z,12.07
2018-10-06T00:04:52.177Z,10.13
2018-10-06T00:07:21.298Z,9.67
2018-10-06T00:09:50.459Z,11.73
2018-10-06T00:12:19.587Z,9.50
2018-10-06T00:14:48.682Z,11.53
2018-10-06T00:17:17.798Z,10.57
2018-10-06T00:19:46.884Z,9.93
2018-10-06T00:22:16.048Z,10.23
2018-10-06T00:24:45.135Z,11.37
2018-10-06T00:27:14.258Z,10.77
2018-10-06T00:29:43.319Z,10.70
2018-10-06T00:32:12.477Z,10.20
2018-10-06T00:34:41.617Z,10.93
2018-10-06T00:37:10.814Z,8.63
2018-10-06T00:39:40.000Z,9.87
2018-10-06T00:42:09.120Z,10.53
2018-10-06T00:44:38.210Z,12.50
2018-10-06T00:47:07.371Z,12.83
2018-10-06T00:49:36.765Z,8.90
2018-10-06T00:52:05.978Z,13.47
2018-10-06T00:54:35.089Z,10.27
2018-10-06T00:57:04.246Z,10.60
2018-10-06T00:59:33.317Z,13.27
2018-10-06T01:02:02.437Z,13.13
2018-10-06T01:04:31.532Z,10.63
2018-10-06T01:07:00.638Z,12.37
2018-10-06T01:09:29.750Z,14.17
2018-10-06T01:11:58.872Z,16.60
2018-10-06T01:14:27.953Z,11.97
2018-10-06T01:16:57.045Z,10.33
2018-10-06T01:19:26.384Z,14.27
2018-10-06T01:21:55.478Z,11.10
2018-10-06T01:24:24.575Z,10.77
2018-10-06T01:26:53.686Z,10.77
2018-10-06T01:29:22.769Z,14.07
2018-10-06T01:31:51.869Z,9.30
2018-10-06T01:34:20.969Z,10.47
2018-10-06T01:36:50.062Z,12.10
2018-10-06T01:39:19.404Z,10.57
2018-10-06T01:41:49.321Z,11.63
2018-10-06T01:44:18.398Z,12.40
2018-10-06T01:46:47.494Z,10.47
2018-10-06T01:49:16.676Z,10.80
2018-10-06T01:51:45.787Z,11.33
2018-10-06T01:54:14.931Z,10.63
2018-10-06T01:56:44.065Z,13.03
2018-10-06T01:59:13.142Z,9.70
2018-10-06T02:01:42.309Z,14.20
2018-10-06T02:04:13.102Z,10.53
2018-10-06T02:06:42.305Z,10.67
2018-10-06T02:09:11.451Z,11.40
2018-10-06T02:11:40.587Z,14.97
2018-10-06T02:14:09.709Z,11.50
2018-10-06T02:16:38.833Z,13.33
2018-10-06T02:19:07.959Z,14.57
2018-10-06T02:21:37.027Z,12.40
2018-10-06T02:24:06.185Z,15.50
2018-10-06T02:26:35.494Z,20.60
2018-10-06T02:29:04.610Z,12.53
2018-10-06T02:31:33.833Z,12.83
2018-10-06T02:34:03.109Z,15.47
2018-10-06T02:36:32.566Z,12.33
2018-10-06T02:39:06.910Z,13.63
2018-10-06T02:41:36.314Z,11.23
2018-10-06T02:44:05.644Z,16.53
2018-10-06T02:46:34.838Z,14.23
2018-10-06T02:49:04.093Z,15.07
2018-10-06T02:51:33.382Z,12.13
2018-10-06T02:54:02.786Z,14.70
2018-10-06T02:56:31.933Z,15.40
2018-10-06T02:59:01.213Z,11.87
2018-10-06T03:01:30.609Z,12.93
2018-10-06T03:03:59.787Z,14.40
2018-10-06T03:06:29.106Z,12.40
2018-10-06T03:08:58.476Z,11.83
2018-10-06T03:11:27.699Z,12.90
2018-10-06T03:13:57.029Z,16.97
2018-10-06T03:16:26.407Z,11.07
2018-10-06T03:18:55.573Z,15.07
2018-10-06T03:21:24.729Z,14.23
2018-10-06T03:23:53.868Z,15.13
2018-10-06T03:26:22.949Z,11.77
2018-10-06T03:28:52.070Z,13.03
2018-10-06T03:31:21.146Z,16.23
2018-10-06T03:33:50.253Z,15.30
2018-10-06T03:36:19.345Z,18.77
2018-10-06T03:38:48.495Z,13.00
2018-10-06T03:41:17.605Z,14.07
2018-10-06T03:43:46.688Z,16.03
2018-10-06T03:46:15.815Z,12.87
2018-10-06T03:48:44.915Z,13.03
2018-10-06T03:51:14.043Z,13.60
2018-10-06T03:53:43.135Z,16.73
2018-10-06T03:56:12.242Z,14.57
2018-10-06T03:58:41.403Z,14.60
2018-10-06T04:01:10.509Z,14.43
2018-10-06T04:03:39.599Z,12.93
2018-10-06T04:06:08.734Z,12.10
2018-10-06T04:08:37.845Z,13.83
2018-10-06T04:11:06.973Z,13.30
2018-10-06T04:13:36.076Z,12.63
2018-10-06T04:16:05.199Z,13.63
2018-10-06T04:18:34.300Z,13.77
2018-10-06T04:21:03.424Z,12.93
2018-10-06T04:23:32.507Z,15.03
2018-10-06T04:26:01.588Z,13.80
2018-10-06T04:28:30.729Z,17.50
2018-10-06T04:30:59.847Z,15.97
2018-10-06T04:33:28.942Z,18.07
2018-10-06T04:35:58.081Z,20.50
2018-10-06T04:38:27.146Z,16.63
2018-10-06T04:40:56.275Z,18.60
2018-10-06T04:43:25.367Z,20.30
2018-10-06T04:45:54.504Z,16.03
2018-10-06T04:48:23.597Z,23.23
2018-10-06T04:50:52.686Z,18.80
2018-10-06T04:53:21.741Z,17.83
2018-10-06T04:55:50.867Z,18.27
2018-10-06T04:58:20.059Z,16.03
2018-10-06T05:00:49.178Z,16.97
2018-10-06T05:03:18.353Z,17.33
2018-10-06T05:05:47.482Z,18.13
2018-10-06T05:08:16.592Z,18.17
2018-10-06T05:10:45.709Z,15.30
2018-10-06T05:13:14.789Z,13.43
2018-10-06T05:15:43.892Z,16.83
2018-10-06T05:18:12.972Z,14.97
2018-10-06T05:20:42.082Z,14.17
2018-10-06T05:23:11.161Z,17.50
2018-10-06T05:25:40.345Z,14.97
2018-10-06T05:28:09.442Z,12.93
2018-10-06T05:30:38.566Z,15.93
2018-10-06T05:33:07.659Z,14.80
2018-10-06T05:35:36.761Z,16.00
2018-10-06T05:38:05.919Z,14.13
2018-10-06T05:40:35.105Z,14.23
2018-10-06T05:43:04.205Z,14.20
2018-10-06T05:45:33.381Z,15.53
2018-10-06T05:48:02.518Z,12.27
2018-10-06T05:50:31.634Z,11.53
2018-10-06T05:53:00.738Z,15.87
2018-10-06T05:55:29.857Z,13.40
2018-10-06T05:57:59.268Z,14.73
2018-10-06T06:00:28.386Z,12.17
2018-10-06T06:02:57.450Z,13.33
2018-10-06T06:05:26.561Z,14.90
2018-10-06T06:07:55.641Z,16.00
2018-10-06T06:10:24.764Z,16.83
2018-10-06T06:12:54.974Z,50.73
2018-10-06T06:15:24.279Z,13.87
2018-10-06T06:17:53.365Z,51.87
2018-10-06T06:20:22.468Z,18.77
2018-10-06T06:22:51.781Z,55.67
2018-10-06T06:25:20.921Z,85.93
2018-10-06T06:27:50.036Z,126.13
2018-10-06T06:30:19.358Z,19.63
2018-10-06T06:32:48.680Z,14.80
2018-10-06T06:35:17.849Z,14.40
2018-10-06T06:37:47.062Z,62.23
2018-10-06T06:40:16.245Z,54.13
2018-10-06T06:42:45.382Z,45.67
2018-10-06T06:45:14.553Z,18.27
2018-10-06T06:47:43.668Z,16.43
2018-10-06T06:50:12.999Z,18.23
2018-10-06T06:52:42.607Z,18.03
2018-10-06T06:55:11.827Z,17.87
2018-10-06T06:57:40.930Z,18.03
2018-10-06T07:00:10.377Z,18.07
2018-10-06T07:02:39.497Z,19.67
2018-10-06T07:05:08.593Z,17.90
2018-10-06T07:07:37.766Z,17.43
2018-10-06T07:10:06.956Z,15.03
2018-10-06T07:12:36.192Z,15.37
2018-10-06T07:15:05.446Z,14.67
2018-10-06T07:17:34.560Z,19.53
2018-10-06T07:20:03.749Z,17.27
2018-10-06T07:22:32.844Z,12.75
2018-10-06T07:25:01.973Z,13.37
2018-10-06T07:27:31.089Z,11.40
2018-10-06T07:30:00.379Z,13.87
2018-10-06T07:32:29.501Z,13.13
2018-10-06T07:35:00.522Z,16.50
2018-10-06T07:37:31.985Z,19.90
2018-10-06T07:40:02.230Z,18.77
2018-10-06T07:42:31.439Z,16.23
2018-10-06T07:45:00.613Z,19.23
2018-10-06T07:47:29.693Z,15.73
2018-10-06T07:50:00.068Z,15.67
2018-10-06T07:52:31.297Z,16.37
2018-10-06T07:55:00.606Z,18.00
2018-10-06T07:57:31.979Z,14.53
2018-10-06T08:00:02.587Z,15.13
2018-10-06T08:02:31.726Z,18.27
2018-10-06T08:05:01.299Z,15.60
2018-10-06T08:07:30.429Z,17.30
2018-10-06T08:10:00.126Z,16.97
2018-10-06T08:12:29.253Z,14.70
2018-10-06T08:14:58.344Z,17.87
2018-10-06T08:17:27.466Z,18.47
2018-10-06T08:19:56.535Z,21.47
2018-10-06T08:22:25.629Z,23.03
2018-10-06T08:24:54.757Z,22.50
2018-10-06T08:27:23.870Z,18.57
2018-10-06T08:29:53.001Z,25.10
2018-10-06T08:32:22.130Z,20.37
2018-10-06T08:34:51.198Z,17.70
2018-10-06T08:37:20.304Z,21.73
2018-10-06T08:39:49.456Z,22.77
2018-10-06T08:42:18.655Z,23.07
2018-10-06T08:44:47.741Z,24.53
2018-10-06T08:47:16.879Z,29.17
2018-10-06T08:49:45.989Z,34.93
2018-10-06T08:52:15.090Z,27.23
2018-10-06T08:54:44.213Z,26.50
2018-10-06T08:57:13.334Z,20.80
2018-10-06T08:59:42.395Z,23.97
2018-10-06T09:02:11.484Z,25.70
2018-10-06T09:04:40.604Z,25.43
2018-10-06T09:07:09.753Z,26.73
2018-10-06T09:09:38.854Z,23.80
2018-10-06T09:12:07.948Z,24.67
2018-10-06T09:14:37.046Z,26.27
2018-10-06T09:17:06.813Z,24.43
2018-10-06T09:19:36.019Z,26.20
2018-10-06T09:22:05.121Z,25.60
2018-10-06T09:24:34.241Z,25.00
2018-10-06T09:27:03.349Z,23.90
2018-10-06T09:29:32.482Z,22.37
2018-10-06T09:32:01.578Z,25.63
2018-10-06T09:34:30.741Z,28.20
2018-10-06T09:36:59.842Z,25.80
2018-10-06T09:39:28.975Z,27.90
2018-10-06T09:41:58.117Z,27.17
2018-10-06T09:44:27.160Z,28.57
2018-10-06T09:46:56.237Z,28.93
2018-10-06T09:49:25.446Z,25.40
2018-10-06T09:51:54.586Z,26.57
2018-10-06T09:54:23.681Z,24.30
2018-10-06T09:56:52.760Z,24.10
2018-10-06T09:59:21.914Z,23.60
2018-10-06T10:01:56.063Z,26.60
2018-10-06T10:04:25.168Z,24.37
2018-10-06T10:06:54.269Z,25.57
2018-10-06T10:09:23.409Z,25.17
2018-10-06T10:11:52.504Z,25.80
2018-10-06T10:14:21.641Z,29.30
2018-10-06T10:16:50.741Z,23.87
2018-10-06T10:19:19.855Z,23.90
2018-10-06T10:21:48.964Z,26.73
2018-10-06T10:24:18.038Z,29.20
2018-10-06T10:26:47.132Z,27.63
2018-10-06T10:29:16.277Z,21.70
2018-10-06T10:31:45.393Z,25.93
2018-10-06T10:34:14.554Z,23.30
2018-10-06T10:36:43.650Z,23.23
2018-10-06T10:39:12.843Z,22.20
2018-10-06T10:41:41.904Z,25.60
2018-10-06T10:44:11.024Z,26.43
2018-10-06T10:46:40.145Z,25.47
2018-10-06T10:49:09.268Z,26.33
2018-10-06T10:51:38.383Z,28.43
2018-10-06T10:54:07.650Z,25.73
2018-10-06T10:56:36.751Z,23.03
2018-10-06T10:59:05.860Z,22.93
2018-10-06T11:01:34.975Z,24.13
2018-10-06T11:04:04.098Z,22.70
2018-10-06T11:06:33.206Z,21.07
2018-10-06T11:09:02.366Z,19.73
2018-10-06T11:11:31.512Z,21.37
2018-10-06T11:14:00.648Z,25.10
2018-10-06T11:16:29.822Z,20.97
2018-10-06T11:18:58.931Z,19.73
2018-10-06T11:21:28.484Z,21.37
2018-10-06T11:23:57.607Z,20.90
2018-10-06T11:26:26.737Z,20.30
2018-10-06T11:28:55.868Z,17.47
2018-10-06T11:31:24.987Z,23.67
2018-10-06T11:33:54.107Z,20.00
2018-10-06T11:36:23.219Z,20.63
2018-10-06T11:38:52.362Z,24.33
2018-10-06T11:41:21.510Z,21.73
2018-10-06T11:43:50.606Z,18.10
2018-10-06T11:46:19.738Z,18.20
2018-10-06T11:48:48.831Z,21.87
2018-10-06T11:51:18.046Z,19.87
2018-10-06T11:53:47.237Z,18.53
2018-10-06T11:56:16.451Z,18.73
2018-10-06T11:58:45.526Z,19.73
2018-10-06T12:01:14.678Z,21.70
2018-10-06T12:03:43.828Z,18.03
2018-10-06T12:06:12.953Z,17.00
2018-10-06T12:08:42.065Z,17.95
2018-10-06T12:11:11.186Z,21.43
2018-10-06T12:13:40.293Z,15.65
2018-10-06T12:16:09.428Z,22.70
2018-10-06T12:18:38.546Z,16.62
2018-10-06T12:21:07.689Z,18.02
2018-10-06T12:23:36.798Z,18.48
2018-10-06T12:26:05.953Z,14.77
2018-10-06T12:28:34.997Z,15.70
2018-10-06T12:31:04.126Z,17.02
2018-10-06T12:33:33.545Z,15.57
2018-10-06T12:36:02.799Z,12.82
2018-10-06T12:38:31.940Z,15.23
2018-10-06T12:41:01.078Z,19.00
2018-10-06T12:43:30.215Z,15.58
2018-10-06T12:45:59.290Z,13.55
2018-10-06T12:48:28.402Z,14.98
2018-10-06T12:50:57.493Z,15.45
2018-10-06T12:53:26.690Z,16.60
2018-10-06T12:55:56.733Z,14.40
2018-10-06T12:58:25.852Z,14.20
2018-10-06T13:00:55.007Z,11.85
2018-10-06T13:03:24.178Z,11.03
2018-10-06T13:05:53.297Z,13.35
2018-10-06T13:08:23.005Z,12.37
2018-10-06T13:10:52.157Z,12.03
2018-10-06T13:13:21.842Z,11.68
2018-10-06T13:15:53.422Z,12.18
2018-10-06T13:18:23.266Z,13.68
2018-10-06T13:20:52.941Z,11.43
2018-10-06T13:23:27.734Z,11.50
2018-10-06T13:25:58.262Z,10.72
2018-10-06T13:28:29.552Z,17.20
2018-10-06T13:30:59.740Z,14.30
2018-10-06T13:33:32.899Z,10.55
2018-10-06T13:36:03.485Z,12.03
2018-10-06T13:38:34.224Z,13.40
2018-10-06T13:41:04.803Z,15.40
2018-10-06T13:43:34.913Z,11.88
2018-10-06T13:46:05.117Z,12.15
2018-10-06T13:48:35.377Z,17.00
2018-10-06T13:51:05.789Z,16.48
2018-10-06T13:53:36.575Z,16.23
2018-10-06T13:56:05.928Z,15.70
2018-10-06T13:58:36.030Z,11.90
2018-10-06T14:01:05.226Z,10.98
2018-10-06T14:03:34.571Z,10.53
2018-10-06T14:06:03.890Z,10.65
2018-10-06T14:08:33.564Z,9.45
2018-10-06T14:11:03.389Z,12.55
2018-10-06T14:13:32.626Z,10.95
2018-10-06T14:16:01.744Z,9.40
2018-10-06T14:18:30.927Z,9.75
2018-10-06T14:21:00.098Z,7.12
2018-10-06T14:23:29.826Z,10.15
2018-10-06T14:26:01.116Z,8.63
2018-10-06T14:28:31.290Z,8.05
2018-10-06T14:31:00.477Z,11.48
2018-10-06T14:33:29.786Z,11.53
2018-10-06T14:35:58.915Z,6.53
2018-10-06T14:38:28.725Z,9.98
2018-10-06T14:40:58.901Z,24.07
2018-10-06T14:43:28.319Z,23.70
2018-10-06T14:45:58.028Z,19.80
2018-10-06T14:48:27.818Z,15.00
2018-10-06T14:51:00.276Z,13.35
2018-10-06T14:53:29.823Z,11.08
2018-10-06T14:56:01.411Z,10.95
2018-10-06T14:58:31.659Z,12.73
2018-10-06T15:01:00.872Z,10.18
2018-10-06T15:03:33.691Z,12.37
2018-10-06T15:06:04.603Z,11.88
2018-10-06T15:08:34.426Z,10.13
2018-10-06T15:11:07.555Z,12.18
2018-10-06T15:13:41.192Z,12.93
2018-10-06T15:16:12.146Z,12.47
2018-10-06T15:18:41.854Z,11.97
2018-10-06T15:21:11.494Z,10.75
2018-10-06T15:23:40.891Z,8.93
2018-10-06T15:26:11.680Z,12.60
2018-10-06T15:28:41.661Z,8.20
2018-10-06T15:31:12.151Z,9.13
2018-10-06T15:33:42.818Z,7.63
2018-10-06T15:36:12.840Z,9.60
2018-10-06T15:38:42.705Z,11.43
2018-10-06T15:41:12.181Z,8.78
2018-10-06T15:43:41.531Z,8.70
2018-10-06T15:46:11.055Z,10.00
2018-10-06T15:48:40.636Z,8.95
2018-10-06T15:51:10.135Z,8.65
2018-10-06T15:53:40.221Z,9.08
2018-10-06T15:56:09.493Z,9.90
2018-10-06T15:58:38.654Z,9.80
2018-10-06T16:01:08.426Z,11.48
2018-10-06T16:03:38.049Z,11.33
2018-10-06T16:06:08.571Z,16.83
2018-10-06T16:08:37.897Z,12.15
2018-10-06T16:11:07.000Z,10.63
2018-10-06T16:13:36.556Z,11.48
2018-10-06T16:16:07.358Z,8.80
2018-10-06T16:18:36.493Z,9.55
2018-10-06T16:21:06.098Z,13.32
2018-10-06T16:23:35.263Z,9.47
2018-10-06T16:26:04.886Z,12.00
2018-10-06T16:28:34.044Z,10.18
2018-10-06T16:31:03.178Z,11.37
2018-10-06T16:33:32.607Z,9.80
2018-10-06T16:36:01.633Z,12.33
2018-10-06T16:38:30.740Z,14.43
2018-10-06T16:40:59.908Z,16.80
2018-10-06T16:43:29.019Z,17.43
2018-10-06T16:46:00.251Z,16.80
2018-10-06T16:48:31.312Z,17.32
2018-10-06T16:51:03.680Z,13.63
2018-10-06T16:53:35.719Z,13.57
2018-10-06T16:56:08.559Z,15.10
2018-10-06T16:58:39.807Z,13.58
2018-10-06T17:01:12.866Z,14.27
2018-10-06T17:03:45.538Z,14.47
2018-10-06T17:06:15.214Z,12.60
2018-10-06T17:08:48.357Z,10.70
2018-10-06T17:11:20.350Z,9.65
2018-10-06T17:13:51.944Z,8.40
2018-10-06T17:16:26.869Z,10.33
2018-10-06T17:18:56.391Z,8.40
2018-10-06T17:21:27.033Z,9.03
2018-10-06T17:23:58.878Z,8.73
2018-10-06T17:26:30.206Z,12.40
2018-10-06T17:29:00.971Z,15.03
2018-10-06T17:31:30.190Z,17.30
2018-10-06T17:34:01.457Z,14.53
2018-10-06T17:36:38.308Z,12.03
2018-10-06T17:39:09.626Z,12.23
2018-10-06T17:41:41.496Z,13.80
2018-10-06T17:44:13.222Z,11.77
2018-10-06T17:46:47.858Z,13.40
2018-10-06T17:49:23.158Z,12.55
2018-10-06T17:51:57.725Z,14.33
2018-10-06T17:54:27.200Z,13.77
2018-10-06T17:56:56.339Z,16.67
2018-10-06T17:59:26.125Z,13.63
2018-10-06T18:01:56.543Z,10.97
2018-10-06T18:04:27.863Z,12.53
2018-10-06T18:06:59.860Z,11.07
2018-10-06T18:09:30.089Z,14.30
2018-10-06T18:11:59.977Z,13.73
2018-10-06T18:14:29.230Z,11.97
2018-10-06T18:16:58.385Z,12.30
2018-10-06T18:19:27.469Z,13.90
2018-10-06T18:21:57.056Z,10.67
2018-10-06T18:24:26.188Z,12.50
2018-10-06T18:26:55.297Z,13.47
2018-10-06T18:29:24.446Z,12.80
2018-10-06T18:31:54.969Z,13.50
2018-10-06T18:34:26.261Z,13.53
2018-10-06T18:37:02.846Z,11.73
2018-10-06T18:39:33.505Z,15.27
2018-10-06T18:42:05.858Z,13.20
2018-10-06T18:44:38.361Z,10.97
2018-10-06T18:47:10.610Z,19.63
2018-10-06T18:49:45.872Z,17.53
2018-10-06T18:52:21.630Z,14.83
2018-10-06T18:54:54.004Z,18.37
2018-10-06T18:57:27.604Z,15.67
2018-10-06T18:59:58.530Z,14.03
2018-10-06T19:02:27.820Z,17.40
2018-10-06T19:04:59.406Z,16.40
2018-10-06T19:07:30.142Z,16.93
2018-10-06T19:10:05.124Z,19.03
2018-10-06T19:12:36.032Z,13.23
2018-10-06T19:15:22.414Z,15.00
2018-10-06T19:17:57.722Z,16.37
2018-10-06T19:20:29.420Z,18.50
2018-10-06T19:23:00.370Z,16.53
2018-10-06T19:25:29.611Z,16.03
2018-10-06T19:28:06.126Z,17.23
2018-10-06T19:30:39.124Z,23.20
2018-10-06T19:33:12.143Z,23.97
2018-10-06T19:35:46.462Z,20.73
2018-10-06T19:38:19.150Z,36.43
2018-10-06T19:40:51.534Z,22.67
2018-10-06T19:43:21.811Z,21.37
2018-10-06T19:45:51.000Z,21.73
2018-10-06T19:48:20.082Z,16.37
2018-10-06T19:50:49.200Z,16.00
2018-10-06T19:53:18.298Z,16.63
2018-10-06T19:55:48.433Z,16.60
2018-10-06T19:58:18.482Z,12.60
2018-10-06T20:00:48.459Z,10.13
2018-10-06T20:03:17.693Z,10.57
2018-10-06T20:05:48.167Z,12.77
2018-10-06T20:08:20.041Z,11.93
2018-10-06T20:10:50.694Z,11.47
2018-10-06T20:13:22.173Z,14.37
2018-10-06T20:15:52.681Z,12.70
2018-10-06T20:18:23.297Z,12.77
2018-10-06T20:20:54.162Z,11.23
2018-10-06T20:23:27.113Z,13.77
2018-10-06T20:25:56.487Z,12.23
2018-10-06T20:28:25.598Z,14.73
2018-10-06T20:30:57.250Z,13.50
2018-10-06T20:33:26.797Z,24.70
2018-10-06T20:35:56.206Z,18.10
2018-10-06T20:38:26.717Z,15.67
2018-10-06T20:40:57.333Z,10.77
2018-10-06T20:43:27.364Z,13.83
2018-10-06T20:45:57.401Z,14.60
2018-10-06T20:48:26.520Z,13.70
2018-10-06T20:50:55.637Z,10.83
2018-10-06T20:53:26.267Z,13.93
2018-10-06T20:55:56.235Z,12.07
2018-10-06T20:58:26.830Z,12.80
2018-10-06T21:00:56.092Z,13.57
2018-10-06T21:03:25.446Z,12.97
2018-10-06T21:05:55.109Z,16.77
2018-10-06T21:08:25.300Z,16.50
2018-10-06T21:10:54.948Z,15.00
2018-10-06T21:13:24.407Z,14.73
2018-10-06T21:15:53.915Z,15.77
2018-10-06T21:18:23.043Z,15.57
2018-10-06T21:20:52.865Z,16.87
2018-10-06T21:23:22.493Z,18.57
2018-10-06T21:25:51.786Z,16.80
2018-10-06T21:28:21.251Z,26.10
2018-10-06T21:30:50.917Z,22.57
2018-10-06T21:33:20.794Z,18.47
2018-10-06T21:35:49.985Z,18.43
2018-10-06T21:38:22.366Z,19.57
2018-10-06T21:40:52.858Z,18.07
2018-10-06T21:43:23.193Z,20.13
2018-10-06T21:45:54.333Z,17.00
2018-10-06T21:48:24.317Z,16.63
2018-10-06T21:50:53.529Z,13.37
2018-10-06T21:53:22.592Z,20.73
2018-10-06T21:55:51.686Z,16.97
